createdAt,value
2018-11-06T00:02:22.689Z,8.30
2018-11-06T00:05:03.641Z,8.30
2018-11-06T00:07:38.971Z,8.30
2018-11-06T00:10:14.848Z,8.50
2018-11-06T00:12:50.199Z,8.40
2018-11-06T00:15:25.725Z,8.40
2018-11-06T00:18:01.264Z,8.40
2018-11-06T00:20:37.432Z,8.40
2018-11-06T00:23:12.752Z,8.40
2018-11-06T00:25:48.334Z,8.40
2018-11-06T00:28:23.600Z,8.40
2018-11-06T00:30:59.152Z,8.40
2018-11-06T00:33:34.627Z,8.40
2018-11-06T00:36:10.131Z,8.40
2018-11-06T00:38:45.621Z,8.30
2018-11-06T00:41:21.273Z,8.30
2018-11-06T00:43:56.538Z,8.30
2018-11-06T00:46:32.089Z,8.40
2018-11-06T00:49:07.622Z,8.50
2018-11-06T00:51:43.498Z,8.40
2018-11-06T00:54:18.973Z,8.40
2018-11-06T00:56:54.793Z,8.40
2018-11-06T00:59:30.129Z,8.40
2018-11-06T01:02:05.992Z,8.40
2018-11-06T01:04:41.198Z,8.30
2018-11-06T01:07:16.902Z,8.30
2018-11-06T01:09:53.045Z,8.30
2018-11-06T01:12:29.102Z,8.30
2018-11-06T01:15:05.129Z,8.30
2018-11-06T01:17:41.254Z,8.30
2018-11-06T01:20:18.101Z,8.40
2018-11-06T01:22:53.750Z,8.30
2018-11-06T01:25:28.991Z,8.30
2018-11-06T01:28:04.478Z,8.30
2018-11-06T01:30:39.958Z,8.30
2018-11-06T01:33:15.534Z,8.30
2018-11-06T01:35:51.042Z,8.30
2018-11-06T01:38:26.748Z,8.30
2018-11-06T01:41:02.248Z,8.30
2018-11-06T01:43:37.722Z,8.40
2018-11-06T01:46:12.985Z,8.40
2018-11-06T01:48:48.501Z,8.40
2018-11-06T01:51:23.928Z,8.40
2018-11-06T01:53:59.516Z,8.40
2018-11-06T01:56:35.290Z,8.40
2018-11-06T01:59:11.040Z,8.40
2018-11-06T02:01:46.272Z,8.40
2018-11-06T02:04:21.819Z,8.40
2018-11-06T02:06:57.144Z,8.40
2018-11-06T02:09:32.888Z,8.40
2018-11-06T02:12:08.402Z,8.40
2018-11-06T02:14:43.884Z,8.30
2018-11-06T02:17:19.064Z,8.30
2018-11-06T02:19:54.564Z,8.20
2018-11-06T02:22:30.213Z,8.20
2018-11-06T02:25:06.610Z,8.10
2018-11-06T02:27:41.955Z,8.10
2018-11-06T02:30:18.343Z,8.10
2018-11-06T02:32:53.697Z,8.10
2018-11-06T02:35:29.705Z,8.10
2018-11-06T02:38:05.085Z,8.10
2018-11-06T02:40:40.536Z,8.00
2018-11-06T02:43:16.018Z,8.00
2018-11-06T02:45:51.665Z,7.90
2018-11-06T02:48:27.124Z,7.90
2018-11-06T02:51:02.695Z,7.90
2018-11-06T02:53:38.148Z,7.90
2018-11-06T02:56:13.769Z,7.80
2018-11-06T02:58:49.120Z,7.90
2018-11-06T03:01:24.653Z,8.00
2018-11-06T03:04:00.112Z,7.90
2018-11-06T03:06:35.648Z,7.90
2018-11-06T03:09:10.937Z,7.90
2018-11-06T03:11:46.440Z,7.80
2018-11-06T03:14:21.670Z,7.80
2018-11-06T03:16:57.301Z,7.80
2018-11-06T03:19:32.688Z,7.80
2018-11-06T03:22:08.221Z,7.80
2018-11-06T03:24:43.657Z,7.80
2018-11-06T03:27:19.322Z,7.90
2018-11-06T03:29:54.648Z,7.80
2018-11-06T03:32:30.201Z,7.80
2018-11-06T03:35:06.416Z,7.90
2018-11-06T03:37:42.138Z,7.80
2018-11-06T03:40:17.472Z,7.80
2018-11-06T03:42:53.008Z,7.80
2018-11-06T03:45:28.500Z,7.80
2018-11-06T03:48:04.235Z,7.80
2018-11-06T03:50:39.694Z,7.80
2018-11-06T03:53:15.164Z,7.80
2018-11-06T03:55:50.584Z,7.80
2018-11-06T03:58:26.600Z,7.80
2018-11-06T04:01:02.031Z,7.80
2018-11-06T04:03:37.803Z,7.90
2018-11-06T04:06:13.076Z,7.80
2018-11-06T04:08:48.512Z,7.90
2018-11-06T04:11:23.977Z,7.90
2018-11-06T04:13:59.481Z,7.90
2018-11-06T04:16:34.870Z,7.90
2018-11-06T04:19:10.773Z,7.90
2018-11-06T04:21:45.930Z,8.00
2018-11-06T04:24:21.566Z,8.00
2018-11-06T04:26:57.029Z,8.00
2018-11-06T04:29:32.660Z,8.00
2018-11-06T04:32:07.957Z,8.00
2018-11-06T04:34:43.450Z,8.10
2018-11-06T04:37:18.664Z,8.10
2018-11-06T04:39:54.348Z,8.20
2018-11-06T04:42:29.570Z,8.20
2018-11-06T04:45:05.334Z,8.20
2018-11-06T04:47:40.726Z,8.20
2018-11-06T04:50:16.434Z,8.30
2018-11-06T04:52:51.876Z,8.30
2018-11-06T04:55:27.634Z,8.40
2018-11-06T04:58:03.396Z,8.40
2018-11-06T05:00:38.938Z,8.40
2018-11-06T05:03:14.376Z,8.40
2018-11-06T05:05:49.937Z,8.40
2018-11-06T05:08:25.295Z,8.40
2018-11-06T05:11:00.811Z,8.40
2018-11-06T05:13:36.482Z,8.40
2018-11-06T05:16:12.005Z,8.40
2018-11-06T05:18:47.490Z,8.50
2018-11-06T05:21:23.413Z,8.50
2018-11-06T05:23:58.761Z,8.40
2018-11-06T05:26:34.412Z,8.40
2018-11-06T05:29:09.879Z,8.40
2018-11-06T05:31:45.700Z,8.40
2018-11-06T05:34:21.202Z,8.40
2018-11-06T05:36:56.812Z,8.40
2018-11-06T05:39:32.095Z,8.40
2018-11-06T05:42:07.576Z,8.40
2018-11-06T05:44:42.866Z,8.40
2018-11-06T05:47:18.469Z,8.40
2018-11-06T05:49:53.997Z,8.40
2018-11-06T05:52:29.878Z,8.40
2018-11-06T05:55:05.716Z,8.40
2018-11-06T05:57:41.381Z,8.50
2018-11-06T06:00:16.857Z,8.50
2018-11-06T06:02:52.372Z,8.50
2018-11-06T06:05:27.805Z,8.50
2018-11-06T06:08:03.674Z,8.50
2018-11-06T06:10:39.038Z,8.50
2018-11-06T06:13:14.871Z,8.50
2018-11-06T06:15:50.202Z,8.40
2018-11-06T06:18:25.933Z,8.40
2018-11-06T06:21:01.298Z,8.40
2018-11-06T06:23:36.802Z,8.40
2018-11-06T06:26:12.352Z,8.40
2018-11-06T06:28:48.049Z,8.50
2018-11-06T06:31:23.361Z,8.60
2018-11-06T06:33:58.958Z,8.50
2018-11-06T06:36:34.492Z,8.50
2018-11-06T06:39:10.857Z,8.50
2018-11-06T06:41:46.293Z,8.50
2018-11-06T06:44:21.969Z,8.50
2018-11-06T06:46:57.474Z,8.50
2018-11-06T06:49:32.945Z,8.50
2018-11-06T06:52:08.436Z,8.50
2018-11-06T06:54:44.634Z,8.50
2018-11-06T06:57:20.236Z,8.40
2018-11-06T06:59:55.838Z,8.40
2018-11-06T07:02:31.384Z,8.40
2018-11-06T07:05:09.309Z,8.40
2018-11-06T07:07:45.037Z,8.40
2018-11-06T07:10:21.855Z,8.40
2018-11-06T07:12:57.383Z,8.30
2018-11-06T07:15:32.840Z,8.20
2018-11-06T07:18:08.297Z,8.30
2018-11-06T07:20:43.836Z,8.30
2018-11-06T07:23:19.334Z,8.20
2018-11-06T07:25:54.822Z,8.20
2018-11-06T07:28:30.244Z,8.10
2018-11-06T07:31:06.417Z,8.10
2018-11-06T07:33:41.769Z,8.20
2018-11-06T07:36:17.309Z,8.20
2018-11-06T07:38:52.829Z,8.30
2018-11-06T07:41:28.623Z,8.30
2018-11-06T07:44:11.611Z,8.30
2018-11-06T07:46:47.179Z,8.30
2018-11-06T07:49:22.992Z,8.20
2018-11-06T07:51:58.807Z,8.20
2018-11-06T07:54:34.164Z,8.20
2018-11-06T07:57:10.097Z,8.20
2018-11-06T07:59:45.562Z,8.20
2018-11-06T08:02:21.182Z,8.40
2018-11-06T08:04:56.676Z,8.40
2018-11-06T08:07:32.278Z,8.50
2018-11-06T08:10:08.836Z,8.60
2018-11-06T08:12:45.760Z,8.60
2018-11-06T08:15:21.248Z,8.70
2018-11-06T08:17:56.828Z,8.60
2018-11-06T08:20:32.393Z,8.70
2018-11-06T08:23:07.889Z,8.70
2018-11-06T08:25:43.181Z,8.70
2018-11-06T08:28:18.721Z,8.70
2018-11-06T08:30:54.510Z,8.70
2018-11-06T08:33:30.232Z,8.80
2018-11-06T08:36:05.842Z,8.80
2018-11-06T08:38:41.369Z,8.90
2018-11-06T08:41:16.836Z,9.00
2018-11-06T08:43:52.262Z,9.10
2018-11-06T08:46:27.754Z,9.10
2018-11-06T08:49:03.596Z,9.10
2018-11-06T08:51:39.143Z,9.10
2018-11-06T08:54:14.805Z,9.20
2018-11-06T08:56:50.454Z,9.30
2018-11-06T08:59:26.710Z,9.40
2018-11-06T09:02:02.185Z,9.40
2018-11-06T09:04:37.718Z,9.40
2018-11-06T09:07:13.165Z,9.40
2018-11-06T09:09:48.799Z,9.50
2018-11-06T09:12:24.264Z,9.50
2018-11-06T09:14:59.786Z,9.70
2018-11-06T09:17:35.020Z,9.90
2018-11-06T09:20:12.390Z,9.90
2018-11-06T09:22:47.639Z,9.90
2018-11-06T09:25:23.101Z,9.90
2018-11-06T09:27:58.305Z,10.00
2018-11-06T09:30:33.825Z,10.10
2018-11-06T09:33:09.220Z,10.20
2018-11-06T09:35:44.969Z,10.30
2018-11-06T09:38:20.238Z,10.40
2018-11-06T09:40:55.739Z,10.50
2018-11-06T09:43:31.040Z,10.30
2018-11-06T09:46:07.591Z,10.20
2018-11-06T09:48:43.192Z,10.10
2018-11-06T09:51:18.610Z,10.10
2018-11-06T09:53:54.001Z,10.20
2018-11-06T09:56:29.549Z,10.30
2018-11-06T09:59:05.521Z,10.40
2018-11-06T10:01:41.081Z,10.60
2018-11-06T10:04:16.403Z,10.70
2018-11-06T10:06:52.529Z,10.80
2018-11-06T10:09:27.834Z,10.90
2018-11-06T10:12:03.536Z,11.00
2018-11-06T10:14:38.729Z,11.00
2018-11-06T10:17:14.484Z,11.00
2018-11-06T10:19:49.981Z,11.10
2018-11-06T10:22:25.400Z,11.10
2018-11-06T10:25:00.645Z,11.10
2018-11-06T10:27:36.553Z,11.20
2018-11-06T10:30:16.184Z,11.20
2018-11-06T10:32:51.740Z,11.20
2018-11-06T10:35:27.107Z,11.20
2018-11-06T10:38:02.591Z,11.20
2018-11-06T10:40:37.860Z,11.30
2018-11-06T10:43:13.432Z,11.30
2018-11-06T10:45:48.912Z,11.30
2018-11-06T10:48:24.431Z,11.30
2018-11-06T10:50:59.907Z,11.60
2018-11-06T10:53:35.308Z,11.80
2018-11-06T10:56:10.882Z,11.90
2018-11-06T10:58:46.657Z,12.00
2018-11-06T11:01:27.237Z,12.00
2018-11-06T11:04:08.002Z,12.10
2018-11-06T11:06:43.487Z,12.30
2018-11-06T11:09:19.252Z,12.50
2018-11-06T11:11:54.889Z,12.60
2018-11-06T11:14:30.651Z,12.60
2018-11-06T11:17:06.360Z,12.60
2018-11-06T11:19:42.389Z,12.60
2018-11-06T11:22:17.879Z,12.60
2018-11-06T11:24:53.469Z,12.70
2018-11-06T11:27:28.961Z,12.70
2018-11-06T11:30:04.513Z,12.70
2018-11-06T11:32:40.905Z,12.70
2018-11-06T11:35:16.878Z,12.60
2018-11-06T11:37:52.331Z,12.60
2018-11-06T11:40:27.866Z,12.60
2018-11-06T11:43:03.105Z,12.70
2018-11-06T11:45:38.573Z,12.70
2018-11-06T11:48:13.981Z,12.60
2018-11-06T11:50:50.457Z,12.70
2018-11-06T11:53:25.998Z,12.70
2018-11-06T11:56:01.462Z,12.70
2018-11-06T11:58:36.948Z,12.80
2018-11-06T12:01:12.457Z,13.00
2018-11-06T12:03:47.652Z,13.00
2018-11-06T12:06:23.345Z,13.10
2018-11-06T12:08:58.668Z,13.20
2018-11-06T12:11:34.296Z,13.20
2018-11-06T12:14:09.564Z,13.30
2018-11-06T12:16:45.376Z,13.40
2018-11-06T12:19:20.670Z,13.40
2018-11-06T12:21:56.222Z,13.40
2018-11-06T12:24:31.709Z,13.30
2018-11-06T12:27:07.373Z,13.20
2018-11-06T12:29:42.674Z,13.10
2018-11-06T12:32:18.422Z,13.10
2018-11-06T12:34:53.808Z,13.10
2018-11-06T12:37:29.497Z,13.10
2018-11-06T12:40:05.560Z,13.20
2018-11-06T12:42:41.413Z,13.40
2018-11-06T12:45:17.452Z,13.40
2018-11-06T12:47:53.025Z,13.50
2018-11-06T12:50:28.402Z,13.60
2018-11-06T12:53:03.816Z,13.70
2018-11-06T12:55:39.224Z,13.70
2018-11-06T12:58:15.214Z,13.70
2018-11-06T13:00:50.694Z,13.70
2018-11-06T13:03:26.324Z,13.80
2018-11-06T13:06:01.762Z,13.70
2018-11-06T13:08:37.475Z,13.70
2018-11-06T13:11:12.658Z,13.70
2018-11-06T13:13:48.312Z,13.70
2018-11-06T13:16:23.759Z,13.70
2018-11-06T13:18:59.385Z,13.70
2018-11-06T13:21:34.598Z,13.70
2018-11-06T13:24:10.188Z,13.70
2018-11-06T13:26:45.398Z,13.70
2018-11-06T13:29:20.897Z,13.70
2018-11-06T13:31:56.264Z,13.70
2018-11-06T13:34:31.961Z,13.70
2018-11-06T13:37:07.193Z,13.70
2018-11-06T13:39:42.773Z,13.70
2018-11-06T13:42:18.280Z,13.70
2018-11-06T13:44:54.049Z,13.70
2018-11-06T13:47:29.307Z,13.60
2018-11-06T13:50:05.356Z,13.60
2018-11-06T13:52:40.640Z,13.60
2018-11-06T13:55:16.964Z,13.50
2018-11-06T13:57:52.641Z,13.50
2018-11-06T14:00:28.254Z,13.50
2018-11-06T14:03:04.469Z,13.40
2018-11-06T14:05:39.965Z,13.40
2018-11-06T14:08:15.374Z,13.40
2018-11-06T14:10:52.002Z,13.40
2018-11-06T14:13:27.376Z,13.40
2018-11-06T14:16:02.938Z,13.40
2018-11-06T14:18:38.178Z,13.30
2018-11-06T14:21:13.809Z,13.30
2018-11-06T14:23:49.236Z,13.20
2018-11-06T14:26:24.844Z,13.10
2018-11-06T14:29:00.294Z,13.10
2018-11-06T14:31:35.856Z,13.00
2018-11-06T14:34:11.330Z,13.00
2018-11-06T14:36:46.841Z,13.00
2018-11-06T14:39:22.185Z,13.00
2018-11-06T14:41:57.730Z,12.90
2018-11-06T14:44:33.086Z,12.90
2018-11-06T14:47:08.519Z,12.90
2018-11-06T14:49:43.990Z,12.90
2018-11-06T14:52:19.608Z,12.90
2018-11-06T14:54:54.813Z,12.90
2018-11-06T14:57:30.603Z,12.80
2018-11-06T15:00:09.053Z,12.70
2018-11-06T15:02:46.309Z,12.60
2018-11-06T15:05:22.477Z,12.60
2018-11-06T15:07:58.192Z,12.50
2018-11-06T15:10:33.546Z,12.50
2018-11-06T15:13:09.012Z,12.40
2018-11-06T15:15:44.222Z,12.40
2018-11-06T15:18:19.902Z,12.30
2018-11-06T15:20:55.339Z,12.40
2018-11-06T15:23:30.792Z,12.40
2018-11-06T15:26:06.297Z,12.40
2018-11-06T15:28:42.098Z,12.40
2018-11-06T15:31:17.621Z,12.40
2018-11-06T15:33:53.185Z,12.40
2018-11-06T15:36:28.746Z,12.30
2018-11-06T15:39:04.840Z,12.30
2018-11-06T15:41:41.407Z,12.20
2018-11-06T15:44:16.809Z,12.10
2018-11-06T15:46:52.180Z,12.00
2018-11-06T15:49:27.909Z,11.90
2018-11-06T15:52:03.113Z,11.90
2018-11-06T15:54:38.717Z,12.00
2018-11-06T15:57:14.438Z,12.00
2018-11-06T15:59:50.096Z,12.00
2018-11-06T16:02:25.626Z,12.00
2018-11-06T16:05:01.090Z,12.00
2018-11-06T16:07:36.946Z,11.90
2018-11-06T16:10:16.087Z,11.90
2018-11-06T16:12:51.478Z,11.80
2018-11-06T16:15:27.097Z,11.80
2018-11-06T16:18:02.669Z,11.80
2018-11-06T16:20:38.273Z,11.80
2018-11-06T16:23:13.710Z,11.70
2018-11-06T16:25:49.141Z,11.60
2018-11-06T16:28:24.498Z,11.60
2018-11-06T16:31:00.051Z,11.50
2018-11-06T16:33:35.519Z,11.50
2018-11-06T16:36:11.147Z,11.50
2018-11-06T16:38:46.456Z,11.50
2018-11-06T16:41:21.962Z,11.40
2018-11-06T16:43:57.434Z,11.50
2018-11-06T16:46:33.026Z,11.40
2018-11-06T16:49:08.267Z,11.40
2018-11-06T16:51:43.818Z,11.30
2018-11-06T16:54:19.025Z,11.30
2018-11-06T16:56:55.366Z,11.30
2018-11-06T16:59:30.924Z,11.30
2018-11-06T17:02:06.821Z,11.30
2018-11-06T17:04:42.157Z,11.30
2018-11-06T17:07:17.816Z,11.30
2018-11-06T17:09:53.116Z,11.20
2018-11-06T17:12:28.600Z,11.20
2018-11-06T17:15:03.797Z,11.20
2018-11-06T17:17:39.317Z,11.20
2018-11-06T17:20:15.445Z,11.20
2018-11-06T17:22:51.000Z,11.20
2018-11-06T17:25:26.504Z,11.10
2018-11-06T17:28:01.980Z,11.10
2018-11-06T17:30:37.477Z,11.00
2018-11-06T17:33:12.918Z,11.00
2018-11-06T17:35:48.389Z,10.90
2018-11-06T17:38:23.951Z,11.00
2018-11-06T17:40:59.257Z,11.00
2018-11-06T17:43:34.869Z,11.00
2018-11-06T17:46:10.235Z,11.00
2018-11-06T17:48:45.856Z,10.90
2018-11-06T17:51:21.341Z,10.90
2018-11-06T17:53:57.070Z,10.90
2018-11-06T17:56:32.694Z,10.90
2018-11-06T17:59:08.671Z,10.80
2018-11-06T18:01:44.019Z,10.70
2018-11-06T18:04:19.658Z,10.70
2018-11-06T18:06:55.276Z,10.70
2018-11-06T18:09:30.938Z,10.70
2018-11-06T18:12:06.482Z,10.70
2018-11-06T18:14:41.886Z,10.70
2018-11-06T18:17:17.308Z,10.70
2018-11-06T18:19:53.158Z,10.70
2018-11-06T18:22:28.576Z,10.50
2018-11-06T18:25:04.125Z,10.60
2018-11-06T18:27:40.176Z,10.50
2018-11-06T18:30:17.231Z,10.40
2018-11-06T18:32:53.152Z,10.30
2018-11-06T18:35:28.621Z,10.40
2018-11-06T18:38:04.114Z,10.30
2018-11-06T18:40:39.541Z,10.30
2018-11-06T18:43:14.797Z,10.20
2018-11-06T18:45:50.467Z,10.30
2018-11-06T18:48:25.927Z,10.30
2018-11-06T18:51:01.696Z,10.30
2018-11-06T18:53:37.201Z,10.20
2018-11-06T18:56:12.658Z,10.30
2018-11-06T18:58:48.245Z,10.20
2018-11-06T19:01:23.967Z,10.20
2018-11-06T19:03:59.311Z,10.30
2018-11-06T19:06:35.060Z,10.20
2018-11-06T19:09:12.059Z,10.20
2018-11-06T19:11:47.508Z,10.20
2018-11-06T19:14:22.994Z,10.30
2018-11-06T19:16:58.551Z,10.20
2018-11-06T19:19:33.709Z,10.20
2018-11-06T19:22:09.359Z,10.30
2018-11-06T19:24:44.614Z,10.20
2018-11-06T19:27:20.361Z,10.30
2018-11-06T19:29:55.790Z,10.30
2018-11-06T19:32:31.563Z,10.30
2018-11-06T19:35:07.157Z,10.30
2018-11-06T19:37:43.066Z,10.30
2018-11-06T19:40:18.849Z,10.40
2018-11-06T19:42:54.392Z,10.40
2018-11-06T19:45:29.828Z,10.40
2018-11-06T19:48:05.757Z,10.40
2018-11-06T19:50:41.228Z,10.40
2018-11-06T19:53:16.947Z,10.40
2018-11-06T19:55:52.416Z,10.40
2018-11-06T19:58:28.261Z,10.50
2018-11-06T20:01:03.591Z,10.50
2018-11-06T20:03:39.011Z,10.50
2018-11-06T20:06:14.299Z,10.40
2018-11-06T20:08:49.865Z,10.40
2018-11-06T20:11:25.361Z,10.40
2018-11-06T20:14:00.803Z,10.40
2018-11-06T20:16:36.320Z,10.40
2018-11-06T20:19:11.681Z,10.40
2018-11-06T20:21:47.205Z,10.40
2018-11-06T20:24:22.811Z,10.40
2018-11-06T20:26:58.141Z,10.40
2018-11-06T20:29:33.819Z,10.50
2018-11-06T20:32:09.328Z,10.40
2018-11-06T20:34:44.870Z,10.50
2018-11-06T20:37:20.379Z,10.50
2018-11-06T20:39:55.769Z,10.50
2018-11-06T20:42:31.082Z,10.60
2018-11-06T20:45:08.434Z,10.60
2018-11-06T20:47:44.252Z,10.60
2018-11-06T20:50:21.911Z,10.60
2018-11-06T20:52:57.317Z,10.60
2018-11-06T20:55:32.948Z,10.50
2018-11-06T20:58:08.568Z,10.50
2018-11-06T21:00:44.152Z,10.40
2018-11-06T21:03:19.645Z,10.50
2018-11-06T21:05:55.085Z,10.40
2018-11-06T21:08:30.581Z,10.40
2018-11-06T21:11:06.364Z,10.40
2018-11-06T21:13:41.880Z,10.30
2018-11-06T21:16:17.406Z,10.20
2018-11-06T21:18:52.948Z,10.20
2018-11-06T21:21:28.461Z,10.20
2018-11-06T21:24:03.861Z,10.10
2018-11-06T21:26:39.648Z,10.10
2018-11-06T21:29:14.885Z,10.00
2018-11-06T21:31:50.430Z,10.00
2018-11-06T21:34:25.981Z,9.90
2018-11-06T21:37:01.685Z,9.90
2018-11-06T21:39:36.920Z,10.00
2018-11-06T21:42:12.554Z,10.00
2018-11-06T21:44:47.933Z,10.00
2018-11-06T21:47:23.402Z,9.90
2018-11-06T21:49:58.637Z,10.00
2018-11-06T21:52:34.411Z,9.90
2018-11-06T21:55:11.250Z,9.90
2018-11-06T21:57:47.021Z,9.90
2018-11-06T22:00:22.509Z,9.90
2018-11-06T22:02:58.117Z,9.90
2018-11-06T22:05:33.435Z,9.90
2018-11-06T22:08:08.904Z,9.90
2018-11-06T22:10:44.153Z,9.90
2018-11-06T22:13:19.597Z,9.90
2018-11-06T22:15:55.041Z,9.90
2018-11-06T22:18:31.101Z,9.80
2018-11-06T22:21:07.264Z,9.90
2018-11-06T22:23:42.916Z,9.80
2018-11-06T22:26:18.345Z,9.80
2018-11-06T22:28:54.106Z,9.80
2018-11-06T22:31:29.462Z,9.70
2018-11-06T22:34:05.314Z,9.80
2018-11-06T22:36:40.645Z,9.70
2018-11-06T22:39:16.267Z,9.70
2018-11-06T22:41:51.433Z,9.70
2018-11-06T22:44:26.829Z,9.60
2018-11-06T22:47:02.058Z,9.60
2018-11-06T22:49:37.686Z,9.60
2018-11-06T22:52:13.125Z,9.60
2018-11-06T22:54:48.721Z,9.60
2018-11-06T22:57:24.069Z,9.60
2018-11-06T23:00:00.075Z,9.60
2018-11-06T23:02:35.549Z,9.50
2018-11-06T23:05:11.170Z,9.50
2018-11-06T23:07:51.834Z,9.50
2018-11-06T23:10:27.450Z,9.50
2018-11-06T23:13:02.692Z,9.50
2018-11-06T23:15:38.197Z,9.50
2018-11-06T23:18:13.560Z,9.50
2018-11-06T23:20:49.157Z,9.50
2018-11-06T23:23:24.656Z,9.50
2018-11-06T23:26:00.356Z,9.40
2018-11-06T23:28:35.854Z,9.40
2018-11-06T23:31:11.445Z,9.40
2018-11-06T23:33:46.932Z,9.30
2018-11-06T23:36:22.356Z,9.30
2018-11-06T23:38:57.642Z,9.30
2018-11-06T23:41:33.237Z,9.30
2018-11-06T23:44:08.702Z,9.30
2018-11-06T23:46:44.204Z,9.20
2018-11-06T23:49:19.612Z,9.30
2018-11-06T23:51:55.106Z,9.20
2018-11-06T23:54:30.456Z,9.20
2018-11-06T23:57:06.433Z,9.10
2018-11-06T23:59:42.097Z,9.10
